sensor_id;sensor_type;location;lat;lon;timestamp;P1;durP1;ratioP1;P2;durP2;ratioP2
17997;SDS011;9124;48.144;17.098;2023-12-28T00:04:22;12.00;;;10.70;;
17997;SDS011;9124;48.144;17.098;2023-12-28T00:08:48;11.15;;;10.15;;
17997;SDS011;9124;48.144;17.098;2023-12-28T00:13:16;11.88;;;10.70;;
17997;SDS011;9124;48.144;17.098;2023-12-28T00:17:43;15.25;;;11.00;;
17997;SDS011;9124;48.144;17.098;2023-12-28T00:22:10;12.35;;;11.13;;
17997;SDS011;9124;48.144;17.098;2023-12-28T00:26:36;13.63;;;10.85;;
17997;SDS011;9124;48.144;17.098;2023-12-28T00:31:05;13.32;;;10.85;;
17997;SDS011;9124;48.144;17.098;2023-12-28T00:35:31;13.13;;;11.70;;
17997;SDS011;9124;48.144;17.098;2023-12-28T00:39:58;12.85;;;10.77;;
17997;SDS011;9124;48.144;17.098;2023-12-28T00:44:25;12.35;;;11.25;;
17997;SDS011;9124;48.144;17.098;2023-12-28T00:48:51;12.50;;;11.15;;
17997;SDS011;9124;48.144;17.098;2023-12-28T00:53:17;12.07;;;10.98;;
17997;SDS011;9124;48.144;17.098;2023-12-28T00:57:45;13.40;;;11.27;;
17997;SDS011;9124;48.144;17.098;2023-12-28T01:02:12;12.40;;;11.20;;
17997;SDS011;9124;48.144;17.098;2023-12-28T01:06:40;16.20;;;12.35;;
17997;SDS011;9124;48.144;17.098;2023-12-28T01:11:06;15.13;;;11.13;;
17997;SDS011;9124;48.144;17.098;2023-12-28T01:15:35;13.50;;;11.13;;
17997;SDS011;9124;48.144;17.098;2023-12-28T01:20:02;12.02;;;10.77;;
17997;SDS011;9124;48.144;17.098;2023-12-28T01:24:32;14.30;;;11.15;;
17997;SDS011;9124;48.144;17.098;2023-12-28T01:28:58;13.75;;;11.02;;
17997;SDS011;9124;48.144;17.098;2023-12-28T01:33:27;11.95;;;10.85;;
17997;SDS011;9124;48.144;17.098;2023-12-28T01:37:54;12.82;;;10.23;;
17997;SDS011;9124;48.144;17.098;2023-12-28T01:42:22;12.43;;;11.07;;
17997;SDS011;9124;48.144;17.098;2023-12-28T01:46:49;13.18;;;10.63;;
17997;SDS011;9124;48.144;17.098;2023-12-28T01:51:16;11.98;;;10.77;;
17997;SDS011;9124;48.144;17.098;2023-12-28T01:55:44;12.90;;;10.82;;
17997;SDS011;9124;48.144;17.098;2023-12-28T02:00:12;16.25;;;11.32;;
17997;SDS011;9124;48.144;17.098;2023-12-28T02:04:38;11.73;;;10.57;;
17997;SDS011;9124;48.144;17.098;2023-12-28T02:09:05;11.90;;;10.48;;
17997;SDS011;9124;48.144;17.098;2023-12-28T02:13:32;11.10;;;9.77;;
17997;SDS011;9124;48.144;17.098;2023-12-28T02:18:00;16.17;;;10.98;;
17997;SDS011;9124;48.144;17.098;2023-12-28T02:22:31;12.63;;;11.20;;
17997;SDS011;9124;48.144;17.098;2023-12-28T02:26:59;12.63;;;10.55;;
17997;SDS011;9124;48.144;17.098;2023-12-28T02:31:28;16.83;;;11.38;;
17997;SDS011;9124;48.144;17.098;2023-12-28T02:36:02;11.95;;;10.70;;
17997;SDS011;9124;48.144;17.098;2023-12-28T02:40:38;13.88;;;11.15;;
17997;SDS011;9124;48.144;17.098;2023-12-28T02:45:09;15.15;;;10.93;;
17997;SDS011;9124;48.144;17.098;2023-12-28T02:49:38;14.57;;;11.55;;
17997;SDS011;9124;48.144;17.098;2023-12-28T02:54:04;21.85;;;12.02;;
17997;SDS011;9124;48.144;17.098;2023-12-28T02:58:33;14.57;;;12.07;;
17997;SDS011;9124;48.144;17.098;2023-12-28T03:02:59;15.63;;;12.15;;
17997;SDS011;9124;48.144;17.098;2023-12-28T03:07:27;17.90;;;13.05;;
17997;SDS011;9124;48.144;17.098;2023-12-28T03:11:54;17.58;;;12.68;;
17997;SDS011;9124;48.144;17.098;2023-12-28T03:16:22;15.07;;;13.32;;
17997;SDS011;9124;48.144;17.098;2023-12-28T03:20:48;17.80;;;14.07;;
17997;SDS011;9124;48.144;17.098;2023-12-28T03:25:17;19.67;;;13.45;;
17997;SDS011;9124;48.144;17.098;2023-12-28T03:29:44;13.77;;;12.45;;
17997;SDS011;9124;48.144;17.098;2023-12-28T03:34:14;20.90;;;13.70;;
17997;SDS011;9124;48.144;17.098;2023-12-28T03:38:40;16.15;;;13.40;;
17997;SDS011;9124;48.144;17.098;2023-12-28T03:43:08;14.40;;;12.70;;
17997;SDS011;9124;48.144;17.098;2023-12-28T03:47:34;17.90;;;14.45;;
17997;SDS011;9124;48.144;17.098;2023-12-28T03:52:01;15.15;;;13.73;;
17997;SDS011;9124;48.144;17.098;2023-12-28T03:56:28;19.08;;;13.95;;
17997;SDS011;9124;48.144;17.098;2023-12-28T04:00:56;15.70;;;13.30;;
17997;SDS011;9124;48.144;17.098;2023-12-28T04:05:22;17.02;;;13.68;;
17997;SDS011;9124;48.144;17.098;2023-12-28T04:09:49;18.50;;;13.88;;
17997;SDS011;9124;48.144;17.098;2023-12-28T04:14:16;18.30;;;13.30;;
17997;SDS011;9124;48.144;17.098;2023-12-28T04:18:42;17.73;;;13.40;;
17997;SDS011;9124;48.144;17.098;2023-12-28T04:23:09;13.75;;;12.55;;
17997;SDS011;9124;48.144;17.098;2023-12-28T04:27:37;19.90;;;12.85;;
17997;SDS011;9124;48.144;17.098;2023-12-28T04:32:04;13.85;;;12.05;;
17997;SDS011;9124;48.144;17.098;2023-12-28T04:36:32;16.88;;;12.15;;
17997;SDS011;9124;48.144;17.098;2023-12-28T04:41:05;15.98;;;12.93;;
17997;SDS011;9124;48.144;17.098;2023-12-28T04:45:31;15.88;;;11.98;;
17997;SDS011;9124;48.144;17.098;2023-12-28T04:49:59;16.77;;;12.13;;
17997;SDS011;9124;48.144;17.098;2023-12-28T04:54:25;15.38;;;12.32;;
17997;SDS011;9124;48.144;17.098;2023-12-28T04:58:52;14.00;;;12.60;;
17997;SDS011;9124;48.144;17.098;2023-12-28T05:03:18;16.92;;;12.70;;
17997;SDS011;9124;48.144;17.098;2023-12-28T05:07:45;19.98;;;13.77;;
17997;SDS011;9124;48.144;17.098;2023-12-28T05:12:11;19.75;;;14.07;;
17997;SDS011;9124;48.144;17.098;2023-12-28T05:16:40;16.20;;;13.93;;
17997;SDS011;9124;48.144;17.098;2023-12-28T05:21:06;21.23;;;15.52;;
17997;SDS011;9124;48.144;17.098;2023-12-28T05:25:34;18.48;;;15.05;;
17997;SDS011;9124;48.144;17.098;2023-12-28T05:30:00;19.75;;;16.00;;
17997;SDS011;9124;48.144;17.098;2023-12-28T05:34:26;18.10;;;15.57;;
17997;SDS011;9124;48.144;17.098;2023-12-28T05:38:53;20.17;;;16.90;;
17997;SDS011;9124;48.144;17.098;2023-12-28T05:43:20;17.75;;;14.88;;
17997;SDS011;9124;48.144;17.098;2023-12-28T05:47:47;23.58;;;15.65;;
17997;SDS011;9124;48.144;17.098;2023-12-28T05:52:14;17.75;;;14.93;;
17997;SDS011;9124;48.144;17.098;2023-12-28T05:56:42;25.35;;;15.00;;
17997;SDS011;9124;48.144;17.098;2023-12-28T06:01:09;21.38;;;14.90;;
17997;SDS011;9124;48.144;17.098;2023-12-28T06:05:35;21.55;;;15.80;;
17997;SDS011;9124;48.144;17.098;2023-12-28T06:10:02;23.20;;;15.43;;
17997;SDS011;9124;48.144;17.098;2023-12-28T06:14:28;20.40;;;15.13;;
17997;SDS011;9124;48.144;17.098;2023-12-28T06:18:55;20.58;;;15.82;;
17997;SDS011;9124;48.144;17.098;2023-12-28T06:23:22;17.23;;;15.43;;
17997;SDS011;9124;48.144;17.098;2023-12-28T06:27:49;18.52;;;15.20;;
17997;SDS011;9124;48.144;17.098;2023-12-28T06:32:15;19.13;;;14.70;;
17997;SDS011;9124;48.144;17.098;2023-12-28T06:36:42;18.10;;;14.50;;
17997;SDS011;9124;48.144;17.098;2023-12-28T06:41:09;18.20;;;14.70;;
17997;SDS011;9124;48.144;17.098;2023-12-28T06:45:37;20.65;;;14.60;;
17997;SDS011;9124;48.144;17.098;2023-12-28T06:50:04;19.13;;;14.52;;
17997;SDS011;9124;48.144;17.098;2023-12-28T06:54:31;18.10;;;14.65;;
17997;SDS011;9124;48.144;17.098;2023-12-28T06:58:58;22.35;;;14.30;;
17997;SDS011;9124;48.144;17.098;2023-12-28T07:03:24;24.38;;;14.00;;
17997;SDS011;9124;48.144;17.098;2023-12-28T07:07:59;15.40;;;13.55;;
17997;SDS011;9124;48.144;17.098;2023-12-28T07:12:25;14.98;;;12.70;;
17997;SDS011;9124;48.144;17.098;2023-12-28T07:16:54;19.20;;;13.32;;
17997;SDS011;9124;48.144;17.098;2023-12-28T07:21:20;19.70;;;12.68;;
17997;SDS011;9124;48.144;17.098;2023-12-28T07:25:50;15.15;;;12.98;;
17997;SDS011;9124;48.144;17.098;2023-12-28T07:30:16;16.08;;;13.88;;
17997;SDS011;9124;48.144;17.098;2023-12-28T07:34:43;16.27;;;14.35;;
17997;SDS011;9124;48.144;17.098;2023-12-28T07:39:09;19.55;;;12.95;;
17997;SDS011;9124;48.144;17.098;2023-12-28T07:43:43;19.92;;;13.57;;
17997;SDS011;9124;48.144;17.098;2023-12-28T07:48:09;15.02;;;12.55;;
17997;SDS011;9124;48.144;17.098;2023-12-28T07:52:36;16.45;;;12.77;;
17997;SDS011;9124;48.144;17.098;2023-12-28T07:57:03;14.70;;;13.10;;
17997;SDS011;9124;48.144;17.098;2023-12-28T08:01:31;15.18;;;13.40;;
17997;SDS011;9124;48.144;17.098;2023-12-28T08:05:58;15.00;;;12.88;;
17997;SDS011;9124;48.144;17.098;2023-12-28T08:10:25;14.10;;;12.60;;
17997;SDS011;9124;48.144;17.098;2023-12-28T08:14:51;22.05;;;13.43;;
17997;SDS011;9124;48.144;17.098;2023-12-28T08:19:19;15.13;;;12.68;;
17997;SDS011;9124;48.144;17.098;2023-12-28T08:23:45;14.40;;;13.07;;
17997;SDS011;9124;48.144;17.098;2023-12-28T08:28:14;20.35;;;14.15;;
17997;SDS011;9124;48.144;17.098;2023-12-28T08:32:40;17.92;;;12.93;;
17997;SDS011;9124;48.144;17.098;2023-12-28T08:37:08;15.70;;;14.02;;
17997;SDS011;9124;48.144;17.098;2023-12-28T08:41:37;21.83;;;13.77;;
17997;SDS011;9124;48.144;17.098;2023-12-28T08:46:03;13.35;;;12.07;;
17997;SDS011;9124;48.144;17.098;2023-12-28T08:50:34;17.77;;;13.35;;
17997;SDS011;9124;48.144;17.098;2023-12-28T08:55:00;14.77;;;13.30;;
17997;SDS011;9124;48.144;17.098;2023-12-28T08:59:27;17.27;;;13.90;;
17997;SDS011;9124;48.144;17.098;2023-12-28T09:03:54;16.98;;;13.88;;
17997;SDS011;9124;48.144;17.098;2023-12-28T09:08:22;13.55;;;12.00;;
17997;SDS011;9124;48.144;17.098;2023-12-28T09:12:48;11.98;;;10.55;;
17997;SDS011;9124;48.144;17.098;2023-12-28T09:17:15;14.52;;;12.25;;
17997;SDS011;9124;48.144;17.098;2023-12-28T09:21:42;12.40;;;11.27;;
17997;SDS011;9124;48.144;17.098;2023-12-28T09:26:08;12.73;;;11.57;;
17997;SDS011;9124;48.144;17.098;2023-12-28T09:30:35;11.85;;;10.30;;
17997;SDS011;9124;48.144;17.098;2023-12-28T09:35:02;12.18;;;11.15;;
17997;SDS011;9124;48.144;17.098;2023-12-28T09:39:30;14.15;;;11.48;;
17997;SDS011;9124;48.144;17.098;2023-12-28T09:43:58;11.82;;;10.82;;
17997;SDS011;9124;48.144;17.098;2023-12-28T09:48:47;11.63;;;10.73;;
17997;SDS011;9124;48.144;17.098;2023-12-28T09:53:14;14.43;;;11.88;;
17997;SDS011;9124;48.144;17.098;2023-12-28T09:57:43;12.70;;;11.57;;
17997;SDS011;9124;48.144;17.098;2023-12-28T10:02:11;10.98;;;10.20;;
17997;SDS011;9124;48.144;17.098;2023-12-28T10:06:39;13.27;;;12.07;;
17997;SDS011;9124;48.144;17.098;2023-12-28T10:11:05;13.15;;;12.15;;
17997;SDS011;9124;48.144;17.098;2023-12-28T10:15:37;13.77;;;12.48;;
17997;SDS011;9124;48.144;17.098;2023-12-28T10:20:05;18.33;;;13.70;;
17997;SDS011;9124;48.144;17.098;2023-12-28T10:24:40;16.00;;;14.48;;
17997;SDS011;9124;48.144;17.098;2023-12-28T10:29:08;15.55;;;13.77;;
17997;SDS011;9124;48.144;17.098;2023-12-28T10:33:35;17.63;;;14.32;;
17997;SDS011;9124;48.144;17.098;2023-12-28T10:38:02;16.30;;;14.50;;
17997;SDS011;9124;48.144;17.098;2023-12-28T10:42:34;13.80;;;12.60;;
17997;SDS011;9124;48.144;17.098;2023-12-28T10:47:10;14.00;;;12.80;;
17997;SDS011;9124;48.144;17.098;2023-12-28T10:51:43;15.60;;;14.10;;
17997;SDS011;9124;48.144;17.098;2023-12-28T11:00:49;15.90;;;14.30;;
17997;SDS011;9124;48.144;17.098;2023-12-28T11:05:21;16.65;;;15.13;;
17997;SDS011;9124;48.144;17.098;2023-12-28T11:09:49;17.13;;;15.30;;
17997;SDS011;9124;48.144;17.098;2023-12-28T11:14:18;17.30;;;15.60;;
17997;SDS011;9124;48.144;17.098;2023-12-28T11:18:45;22.80;;;17.02;;
17997;SDS011;9124;48.144;17.098;2023-12-28T11:23:13;18.02;;;16.15;;
17997;SDS011;9124;48.144;17.098;2023-12-28T11:27:43;18.08;;;15.25;;
17997;SDS011;9124;48.144;17.098;2023-12-28T11:32:10;21.35;;;17.00;;
17997;SDS011;9124;48.144;17.098;2023-12-28T11:36:38;19.33;;;16.25;;
17997;SDS011;9124;48.144;17.098;2023-12-28T11:41:16;16.85;;;15.07;;
17997;SDS011;9124;48.144;17.098;2023-12-28T11:45:46;20.30;;;16.38;;
17997;SDS011;9124;48.144;17.098;2023-12-28T11:50:17;18.52;;;16.55;;
17997;SDS011;9124;48.144;17.098;2023-12-28T11:54:53;26.38;;;17.55;;
17997;SDS011;9124;48.144;17.098;2023-12-28T11:59:22;23.90;;;17.20;;
17997;SDS011;9124;48.144;17.098;2023-12-28T12:03:48;22.52;;;17.20;;
17997;SDS011;9124;48.144;17.098;2023-12-28T12:08:17;22.98;;;17.27;;
17997;SDS011;9124;48.144;17.098;2023-12-28T12:12:43;22.10;;;17.50;;
17997;SDS011;9124;48.144;17.098;2023-12-28T12:17:11;21.88;;;17.73;;
17997;SDS011;9124;48.144;17.098;2023-12-28T12:21:38;24.25;;;18.20;;
17997;SDS011;9124;48.144;17.098;2023-12-28T12:26:05;25.00;;;17.65;;
17997;SDS011;9124;48.144;17.098;2023-12-28T12:30:32;25.85;;;18.20;;
17997;SDS011;9124;48.144;17.098;2023-12-28T12:35:00;23.40;;;17.83;;
17997;SDS011;9124;48.144;17.098;2023-12-28T12:39:27;25.63;;;18.80;;
17997;SDS011;9124;48.144;17.098;2023-12-28T12:43:55;29.88;;;18.95;;
17997;SDS011;9124;48.144;17.098;2023-12-28T12:48:25;22.95;;;19.20;;
17997;SDS011;9124;48.144;17.098;2023-12-28T12:52:53;25.35;;;19.55;;
17997;SDS011;9124;48.144;17.098;2023-12-28T12:57:20;31.95;;;21.75;;
17997;SDS011;9124;48.144;17.098;2023-12-28T13:01:47;22.30;;;19.50;;
17997;SDS011;9124;48.144;17.098;2023-12-28T13:06:18;25.23;;;19.45;;
17997;SDS011;9124;48.144;17.098;2023-12-28T13:10:48;24.55;;;18.33;;
17997;SDS011;9124;48.144;17.098;2023-12-28T13:15:18;22.55;;;18.05;;
17997;SDS011;9124;48.144;17.098;2023-12-28T13:19:47;25.05;;;18.95;;
17997;SDS011;9124;48.144;17.098;2023-12-28T13:24:13;25.98;;;19.77;;
17997;SDS011;9124;48.144;17.098;2023-12-28T13:28:40;23.98;;;19.52;;
17997;SDS011;9124;48.144;17.098;2023-12-28T13:33:08;23.27;;;18.85;;
17997;SDS011;9124;48.144;17.098;2023-12-28T13:37:35;26.85;;;20.00;;
17997;SDS011;9124;48.144;17.098;2023-12-28T13:42:01;25.33;;;20.17;;
17997;SDS011;9124;48.144;17.098;2023-12-28T13:46:30;29.88;;;19.90;;
17997;SDS011;9124;48.144;17.098;2023-12-28T13:50:56;23.23;;;20.38;;
17997;SDS011;9124;48.144;17.098;2023-12-28T13:55:26;25.63;;;19.88;;
17997;SDS011;9124;48.144;17.098;2023-12-28T13:59:59;24.85;;;19.50;;
17997;SDS011;9124;48.144;17.098;2023-12-28T14:04:40;23.65;;;20.42;;
17997;SDS011;9124;48.144;17.098;2023-12-28T14:09:09;28.42;;;20.17;;
17997;SDS011;9124;48.144;17.098;2023-12-28T14:13:36;25.42;;;21.02;;
17997;SDS011;9124;48.144;17.098;2023-12-28T14:18:07;24.30;;;19.95;;
17997;SDS011;9124;48.144;17.098;2023-12-28T14:22:38;28.23;;;22.35;;
17997;SDS011;9124;48.144;17.098;2023-12-28T14:27:07;25.13;;;22.35;;
17997;SDS011;9124;48.144;17.098;2023-12-28T14:31:34;26.45;;;22.33;;
17997;SDS011;9124;48.144;17.098;2023-12-28T14:36:00;29.13;;;21.13;;
17997;SDS011;9124;48.144;17.098;2023-12-28T14:40:28;24.58;;;21.10;;
17997;SDS011;9124;48.144;17.098;2023-12-28T14:44:55;31.67;;;23.58;;
17997;SDS011;9124;48.144;17.098;2023-12-28T14:49:22;43.90;;;29.25;;
17997;SDS011;9124;48.144;17.098;2023-12-28T14:53:48;59.78;;;36.15;;
17997;SDS011;9124;48.144;17.098;2023-12-28T14:58:16;55.00;;;35.58;;
17997;SDS011;9124;48.144;17.098;2023-12-28T15:02:44;58.35;;;37.08;;
17997;SDS011;9124;48.144;17.098;2023-12-28T15:07:12;59.83;;;38.03;;
17997;SDS011;9124;48.144;17.098;2023-12-28T15:11:39;86.03;;;42.40;;
17997;SDS011;9124;48.144;17.098;2023-12-28T15:16:06;81.68;;;41.00;;
17997;SDS011;9124;48.144;17.098;2023-12-28T15:20:33;77.38;;;43.75;;
17997;SDS011;9124;48.144;17.098;2023-12-28T15:25:04;157.50;;;47.72;;
17997;SDS011;9124;48.144;17.098;2023-12-28T15:29:34;102.80;;;47.88;;
17997;SDS011;9124;48.144;17.098;2023-12-28T15:34:02;81.00;;;46.05;;
17997;SDS011;9124;48.144;17.098;2023-12-28T15:38:28;226.68;;;54.83;;
17997;SDS011;9124;48.144;17.098;2023-12-28T15:42:55;106.00;;;49.15;;
17997;SDS011;9124;48.144;17.098;2023-12-28T15:47:21;255.23;;;52.33;;
17997;SDS011;9124;48.144;17.098;2023-12-28T15:51:48;252.40;;;56.88;;
17997;SDS011;9124;48.144;17.098;2023-12-28T15:56:15;428.00;;;69.53;;
17997;SDS011;9124;48.144;17.098;2023-12-28T16:00:48;202.23;;;53.97;;
17997;SDS011;9124;48.144;17.098;2023-12-28T16:05:15;96.82;;;49.53;;
17997;SDS011;9124;48.144;17.098;2023-12-28T16:09:41;102.03;;;47.75;;
17997;SDS011;9124;48.144;17.098;2023-12-28T16:14:10;133.43;;;50.40;;
17997;SDS011;9124;48.144;17.098;2023-12-28T16:18:37;159.05;;;49.97;;
17997;SDS011;9124;48.144;17.098;2023-12-28T16:23:04;103.75;;;46.63;;
17997;SDS011;9124;48.144;17.098;2023-12-28T16:27:30;452.52;;;53.50;;
17997;SDS011;9124;48.144;17.098;2023-12-28T16:31:59;79.85;;;42.58;;
17997;SDS011;9124;48.144;17.098;2023-12-28T16:36:26;232.65;;;51.72;;
17997;SDS011;9124;48.144;17.098;2023-12-28T16:40:52;239.60;;;53.97;;
17997;SDS011;9124;48.144;17.098;2023-12-28T16:45:19;248.18;;;53.55;;
17997;SDS011;9124;48.144;17.098;2023-12-28T16:49:45;91.03;;;48.33;;
17997;SDS011;9124;48.144;17.098;2023-12-28T16:54:11;114.30;;;45.92;;
17997;SDS011;9124;48.144;17.098;2023-12-28T16:58:39;116.43;;;49.78;;
17997;SDS011;9124;48.144;17.098;2023-12-28T17:03:06;335.63;;;50.55;;
17997;SDS011;9124;48.144;17.098;2023-12-28T17:07:32;140.85;;;46.63;;
17997;SDS011;9124;48.144;17.098;2023-12-28T17:12:03;408.05;;;61.40;;
17997;SDS011;9124;48.144;17.098;2023-12-28T17:16:38;140.55;;;49.08;;
17997;SDS011;9124;48.144;17.098;2023-12-28T17:21:06;182.15;;;45.70;;
17997;SDS011;9124;48.144;17.098;2023-12-28T17:25:47;198.35;;;47.80;;
17997;SDS011;9124;48.144;17.098;2023-12-28T17:30:32;91.30;;;44.15;;
17997;SDS011;9124;48.144;17.098;2023-12-28T17:35:02;1019.45;;;92.75;;
17997;SDS011;9124;48.144;17.098;2023-12-28T17:39:31;194.23;;;51.10;;
17997;SDS011;9124;48.144;17.098;2023-12-28T17:44:04;379.85;;;54.80;;
17997;SDS011;9124;48.144;17.098;2023-12-28T17:48:34;465.25;;;57.35;;
17997;SDS011;9124;48.144;17.098;2023-12-28T17:53:05;149.95;;;48.53;;
17997;SDS011;9124;48.144;17.098;2023-12-28T17:57:34;451.65;;;64.20;;
17997;SDS011;9124;48.144;17.098;2023-12-28T18:02:01;775.47;;;83.03;;
17997;SDS011;9124;48.144;17.098;2023-12-28T18:06:28;974.15;;;89.70;;
17997;SDS011;9124;48.144;17.098;2023-12-28T18:10:54;498.42;;;61.95;;
17997;SDS011;9124;48.144;17.098;2023-12-28T18:15:20;492.05;;;64.63;;
17997;SDS011;9124;48.144;17.098;2023-12-28T18:19:47;463.30;;;58.65;;
17997;SDS011;9124;48.144;17.098;2023-12-28T18:24:13;308.35;;;52.40;;
17997;SDS011;9124;48.144;17.098;2023-12-28T18:28:43;107.50;;;41.15;;
17997;SDS011;9124;48.144;17.098;2023-12-28T18:33:09;116.65;;;39.85;;
17997;SDS011;9124;48.144;17.098;2023-12-28T18:37:38;179.75;;;43.17;;
17997;SDS011;9124;48.144;17.098;2023-12-28T18:42:07;82.78;;;35.33;;
17997;SDS011;9124;48.144;17.098;2023-12-28T18:46:34;193.38;;;42.10;;
17997;SDS011;9124;48.144;17.098;2023-12-28T18:51:01;580.78;;;100.43;;
17997;SDS011;9124;48.144;17.098;2023-12-28T18:55:27;1175.88;;;78.20;;
17997;SDS011;9124;48.144;17.098;2023-12-28T18:59:54;176.95;;;40.15;;
17997;SDS011;9124;48.144;17.098;2023-12-28T19:04:21;683.38;;;55.72;;
17997;SDS011;9124;48.144;17.098;2023-12-28T19:08:47;319.95;;;48.88;;
17997;SDS011;9124;48.144;17.098;2023-12-28T19:13:14;482.83;;;57.10;;
17997;SDS011;9124;48.144;17.098;2023-12-28T19:17:40;537.67;;;57.20;;
17997;SDS011;9124;48.144;17.098;2023-12-28T19:22:09;194.35;;;48.20;;
17997;SDS011;9124;48.144;17.098;2023-12-28T19:26:35;204.43;;;44.67;;
17997;SDS011;9124;48.144;17.098;2023-12-28T19:31:02;266.25;;;48.78;;
17997;SDS011;9124;48.144;17.098;2023-12-28T19:35:28;432.45;;;56.47;;
17997;SDS011;9124;48.144;17.098;2023-12-28T19:39:55;235.15;;;48.03;;
17997;SDS011;9124;48.144;17.098;2023-12-28T19:44:21;704.40;;;68.20;;
17997;SDS011;9124;48.144;17.098;2023-12-28T19:48:49;285.88;;;58.35;;
17997;SDS011;9124;48.144;17.098;2023-12-28T19:53:15;540.47;;;70.35;;
17997;SDS011;9124;48.144;17.098;2023-12-28T19:57:44;408.45;;;64.28;;
17997;SDS011;9124;48.144;17.098;2023-12-28T20:02:11;297.83;;;59.67;;
17997;SDS011;9124;48.144;17.098;2023-12-28T20:06:45;515.83;;;73.50;;
17997;SDS011;9124;48.144;17.098;2023-12-28T20:11:13;261.27;;;61.38;;
17997;SDS011;9124;48.144;17.098;2023-12-28T20:15:39;464.23;;;77.75;;
17997;SDS011;9124;48.144;17.098;2023-12-28T20:20:08;160.82;;;59.72;;
17997;SDS011;9124;48.144;17.098;2023-12-28T20:24:34;418.38;;;76.55;;
17997;SDS011;9124;48.144;17.098;2023-12-28T20:29:01;256.65;;;63.70;;
17997;SDS011;9124;48.144;17.098;2023-12-28T20:33:27;373.92;;;70.18;;
17997;SDS011;9124;48.144;17.098;2023-12-28T20:37:56;293.67;;;66.22;;
17997;SDS011;9124;48.144;17.098;2023-12-28T20:42:22;360.95;;;69.47;;
17997;SDS011;9124;48.144;17.098;2023-12-28T20:46:51;371.75;;;68.00;;
17997;SDS011;9124;48.144;17.098;2023-12-28T20:51:18;240.85;;;61.10;;
17997;SDS011;9124;48.144;17.098;2023-12-28T20:55:46;307.38;;;60.38;;
17997;SDS011;9124;48.144;17.098;2023-12-28T21:00:12;422.92;;;78.55;;
17997;SDS011;9124;48.144;17.098;2023-12-28T21:04:40;384.20;;;73.45;;
17997;SDS011;9124;48.144;17.098;2023-12-28T21:09:06;661.78;;;71.15;;
17997;SDS011;9124;48.144;17.098;2023-12-28T21:13:32;385.65;;;54.33;;
17997;SDS011;9124;48.144;17.098;2023-12-28T21:18:03;278.13;;;49.55;;
17997;SDS011;9124;48.144;17.098;2023-12-28T21:22:33;551.85;;;53.97;;
17997;SDS011;9124;48.144;17.098;2023-12-28T21:26:59;306.05;;;52.60;;
17997;SDS011;9124;48.144;17.098;2023-12-28T21:31:26;432.80;;;55.58;;
17997;SDS011;9124;48.144;17.098;2023-12-28T21:35:53;541.60;;;50.22;;
17997;SDS011;9124;48.144;17.098;2023-12-28T21:40:19;222.27;;;50.35;;
17997;SDS011;9124;48.144;17.098;2023-12-28T21:44:46;750.05;;;77.45;;
17997;SDS011;9124;48.144;17.098;2023-12-28T21:49:14;615.25;;;61.40;;
17997;SDS011;9124;48.144;17.098;2023-12-28T21:53:40;186.45;;;45.50;;
17997;SDS011;9124;48.144;17.098;2023-12-28T21:58:07;471.73;;;51.38;;
17997;SDS011;9124;48.144;17.098;2023-12-28T22:02:34;252.27;;;44.95;;
17997;SDS011;9124;48.144;17.098;2023-12-28T22:07:01;451.52;;;53.65;;
17997;SDS011;9124;48.144;17.098;2023-12-28T22:11:28;394.50;;;47.97;;
17997;SDS011;9124;48.144;17.098;2023-12-28T22:15:56;573.63;;;57.13;;
17997;SDS011;9124;48.144;17.098;2023-12-28T22:20:23;403.90;;;59.05;;
17997;SDS011;9124;48.144;17.098;2023-12-28T22:24:50;296.30;;;56.67;;
17997;SDS011;9124;48.144;17.098;2023-12-28T22:29:16;329.23;;;54.92;;
17997;SDS011;9124;48.144;17.098;2023-12-28T22:33:45;467.42;;;62.28;;
17997;SDS011;9124;48.144;17.098;2023-12-28T22:38:11;807.80;;;75.80;;
17997;SDS011;9124;48.144;17.098;2023-12-28T22:42:41;356.00;;;56.58;;
17997;SDS011;9124;48.144;17.098;2023-12-28T22:47:07;480.73;;;69.43;;
17997;SDS011;9124;48.144;17.098;2023-12-28T22:51:34;255.05;;;55.22;;
17997;SDS011;9124;48.144;17.098;2023-12-28T22:56:00;333.50;;;53.95;;
17997;SDS011;9124;48.144;17.098;2023-12-28T23:00:27;269.08;;;59.22;;
17997;SDS011;9124;48.144;17.098;2023-12-28T23:05:06;134.27;;;40.67;;
17997;SDS011;9124;48.144;17.098;2023-12-28T23:09:32;173.55;;;44.90;;
17997;SDS011;9124;48.144;17.098;2023-12-28T23:13:59;166.88;;;47.20;;
17997;SDS011;9124;48.144;17.098;2023-12-28T23:18:25;153.38;;;44.70;;
17997;SDS011;9124;48.144;17.098;2023-12-28T23:22:55;166.10;;;48.70;;
17997;SDS011;9124;48.144;17.098;2023-12-28T23:27:21;151.38;;;46.72;;
17997;SDS011;9124;48.144;17.098;2023-12-28T23:31:48;395.88;;;50.28;;
17997;SDS011;9124;48.144;17.098;2023-12-28T23:36:14;413.10;;;63.70;;
17997;SDS011;9124;48.144;17.098;2023-12-28T23:40:40;690.75;;;66.85;;
17997;SDS011;9124;48.144;17.098;2023-12-28T23:45:07;512.40;;;57.53;;
17997;SDS011;9124;48.144;17.098;2023-12-28T23:49:34;588.10;;;45.30;;
17997;SDS011;9124;48.144;17.098;2023-12-28T23:54:00;487.83;;;44.08;;
17997;SDS011;9124;48.144;17.098;2023-12-28T23:58:27;333.55;;;35.10;;
